sensor_id;sensor_type;location;lat;lon;timestamp;P1;durP1;ratioP1;P2;durP2;ratioP2
39896;SDS011;25567;48.276;14.242;2023-04-03T00:00:32;8.80;;;3.90;;
39896;SDS011;25567;48.276;14.242;2023-04-03T00:03:00;5.80;;;3.30;;
39896;SDS011;25567;48.276;14.242;2023-04-03T00:05:26;7.43;;;3.78;;
39896;SDS011;25567;48.276;14.242;2023-04-03T00:07:53;10.35;;;3.35;;
39896;SDS011;25567;48.276;14.242;2023-04-03T00:10:20;7.35;;;3.60;;
39896;SDS011;25567;48.276;14.242;2023-04-03T00:12:46;4.70;;;3.00;;
39896;SDS011;25567;48.276;14.242;2023-04-03T00:15:13;5.75;;;3.28;;
39896;SDS011;25567;48.276;14.242;2023-04-03T00:17:40;8.88;;;3.67;;
39896;SDS011;25567;48.276;14.242;2023-04-03T00:20:06;6.63;;;3.22;;
39896;SDS011;25567;48.276;14.242;2023-04-03T00:22:34;8.40;;;3.30;;
39896;SDS011;25567;48.276;14.242;2023-04-03T00:25:01;6.03;;;2.90;;
39896;SDS011;25567;48.276;14.242;2023-04-03T00:27:27;5.00;;;3.17;;
39896;SDS011;25567;48.276;14.242;2023-04-03T00:29:54;6.10;;;3.17;;
39896;SDS011;25567;48.276;14.242;2023-04-03T00:32:20;6.65;;;2.80;;
39896;SDS011;25567;48.276;14.242;2023-04-03T00:34:47;7.18;;;2.88;;
39896;SDS011;25567;48.276;14.242;2023-04-03T00:37:14;6.32;;;2.90;;
39896;SDS011;25567;48.276;14.242;2023-04-03T00:39:40;4.72;;;2.72;;
39896;SDS011;25567;48.276;14.242;2023-04-03T00:42:07;7.45;;;2.90;;
39896;SDS011;25567;48.276;14.242;2023-04-03T00:47:00;4.93;;;2.60;;
39896;SDS011;25567;48.276;14.242;2023-04-03T00:49:28;6.40;;;2.83;;
39896;SDS011;25567;48.276;14.242;2023-04-03T00:51:55;9.77;;;3.03;;
39896;SDS011;25567;48.276;14.242;2023-04-03T00:54:23;4.07;;;2.20;;
39896;SDS011;25567;48.276;14.242;2023-04-03T00:56:51;6.75;;;3.47;;
39896;SDS011;25567;48.276;14.242;2023-04-03T00:59:23;7.63;;;3.35;;
39896;SDS011;25567;48.276;14.242;2023-04-03T01:01:53;5.88;;;3.08;;
39896;SDS011;25567;48.276;14.242;2023-04-03T01:04:34;4.65;;;2.40;;
39896;SDS011;25567;48.276;14.242;2023-04-03T01:07:14;4.97;;;2.53;;
39896;SDS011;25567;48.276;14.242;2023-04-03T01:09:45;3.78;;;2.42;;
39896;SDS011;25567;48.276;14.242;2023-04-03T01:14:48;3.30;;;2.22;;
39896;SDS011;25567;48.276;14.242;2023-04-03T01:22:52;3.45;;;2.20;;
39896;SDS011;25567;48.276;14.242;2023-04-03T01:25:25;4.13;;;2.13;;
39896;SDS011;25567;48.276;14.242;2023-04-03T01:27:52;5.97;;;2.22;;
39896;SDS011;25567;48.276;14.242;2023-04-03T01:30:21;5.55;;;2.45;;
39896;SDS011;25567;48.276;14.242;2023-04-03T01:32:52;4.28;;;2.40;;
39896;SDS011;25567;48.276;14.242;2023-04-03T01:35:18;5.38;;;3.10;;
39896;SDS011;25567;48.276;14.242;2023-04-03T01:37:45;4.38;;;2.53;;
39896;SDS011;25567;48.276;14.242;2023-04-03T01:40:12;3.05;;;2.20;;
39896;SDS011;25567;48.276;14.242;2023-04-03T01:42:38;3.83;;;2.20;;
39896;SDS011;25567;48.276;14.242;2023-04-03T01:45:05;5.00;;;2.42;;
39896;SDS011;25567;48.276;14.242;2023-04-03T01:47:32;5.80;;;2.80;;
39896;SDS011;25567;48.276;14.242;2023-04-03T01:49:59;8.05;;;2.35;;
39896;SDS011;25567;48.276;14.242;2023-04-03T01:52:25;3.75;;;2.50;;
39896;SDS011;25567;48.276;14.242;2023-04-03T01:54:52;4.22;;;2.15;;
39896;SDS011;25567;48.276;14.242;2023-04-03T01:57:18;4.47;;;2.40;;
39896;SDS011;25567;48.276;14.242;2023-04-03T01:59:45;4.35;;;2.70;;
39896;SDS011;25567;48.276;14.242;2023-04-03T02:02:12;3.72;;;2.40;;
39896;SDS011;25567;48.276;14.242;2023-04-03T02:04:40;3.65;;;2.40;;
39896;SDS011;25567;48.276;14.242;2023-04-03T02:07:07;6.13;;;2.50;;
39896;SDS011;25567;48.276;14.242;2023-04-03T02:09:34;5.30;;;2.53;;
39896;SDS011;25567;48.276;14.242;2023-04-03T02:12:01;4.93;;;2.88;;
39896;SDS011;25567;48.276;14.242;2023-04-03T02:14:27;4.20;;;2.47;;
39896;SDS011;25567;48.276;14.242;2023-04-03T02:16:54;9.27;;;2.78;;
39896;SDS011;25567;48.276;14.242;2023-04-03T02:19:21;5.25;;;2.28;;
39896;SDS011;25567;48.276;14.242;2023-04-03T02:21:48;4.85;;;2.35;;
39896;SDS011;25567;48.276;14.242;2023-04-03T02:24:15;5.47;;;2.60;;
39896;SDS011;25567;48.276;14.242;2023-04-03T02:26:41;6.22;;;2.42;;
39896;SDS011;25567;48.276;14.242;2023-04-03T02:29:08;10.02;;;3.10;;
39896;SDS011;25567;48.276;14.242;2023-04-03T02:31:34;4.80;;;2.65;;
39896;SDS011;25567;48.276;14.242;2023-04-03T02:34:01;6.38;;;2.70;;
39896;SDS011;25567;48.276;14.242;2023-04-03T02:36:28;7.82;;;3.17;;
39896;SDS011;25567;48.276;14.242;2023-04-03T02:38:57;3.88;;;2.60;;
39896;SDS011;25567;48.276;14.242;2023-04-03T02:41:24;7.10;;;3.08;;
39896;SDS011;25567;48.276;14.242;2023-04-03T02:43:53;6.78;;;3.00;;
39896;SDS011;25567;48.276;14.242;2023-04-03T02:46:20;4.22;;;2.47;;
39896;SDS011;25567;48.276;14.242;2023-04-03T02:48:47;5.72;;;2.50;;
39896;SDS011;25567;48.276;14.242;2023-04-03T02:51:13;4.25;;;2.75;;
39896;SDS011;25567;48.276;14.242;2023-04-03T02:53:40;7.15;;;2.95;;
39896;SDS011;25567;48.276;14.242;2023-04-03T02:56:06;6.63;;;3.00;;
39896;SDS011;25567;48.276;14.242;2023-04-03T02:58:33;4.97;;;2.53;;
39896;SDS011;25567;48.276;14.242;2023-04-03T03:01:00;7.30;;;3.03;;
39896;SDS011;25567;48.276;14.242;2023-04-03T03:03:26;5.45;;;2.63;;
39896;SDS011;25567;48.276;14.242;2023-04-03T03:06:06;6.63;;;2.63;;
39896;SDS011;25567;48.276;14.242;2023-04-03T03:08:34;7.40;;;3.03;;
39896;SDS011;25567;48.276;14.242;2023-04-03T03:11:02;4.57;;;2.45;;
39896;SDS011;25567;48.276;14.242;2023-04-03T03:13:29;5.85;;;2.67;;
39896;SDS011;25567;48.276;14.242;2023-04-03T03:15:56;5.35;;;3.05;;
39896;SDS011;25567;48.276;14.242;2023-04-03T03:18:23;7.50;;;3.28;;
39896;SDS011;25567;48.276;14.242;2023-04-03T03:20:53;5.43;;;2.67;;
39896;SDS011;25567;48.276;14.242;2023-04-03T03:23:21;6.70;;;3.03;;
39896;SDS011;25567;48.276;14.242;2023-04-03T03:25:49;5.57;;;3.08;;
39896;SDS011;25567;48.276;14.242;2023-04-03T03:28:20;7.70;;;3.55;;
39896;SDS011;25567;48.276;14.242;2023-04-03T03:30:47;6.97;;;3.47;;
39896;SDS011;25567;48.276;14.242;2023-04-03T03:33:13;8.55;;;3.45;;
39896;SDS011;25567;48.276;14.242;2023-04-03T03:35:40;8.50;;;3.45;;
39896;SDS011;25567;48.276;14.242;2023-04-03T03:38:07;7.72;;;3.42;;
39896;SDS011;25567;48.276;14.242;2023-04-03T03:40:33;7.45;;;3.85;;
39896;SDS011;25567;48.276;14.242;2023-04-03T03:43:00;8.40;;;3.63;;
39896;SDS011;25567;48.276;14.242;2023-04-03T03:45:27;8.55;;;3.40;;
39896;SDS011;25567;48.276;14.242;2023-04-03T03:47:53;8.98;;;3.70;;
39896;SDS011;25567;48.276;14.242;2023-04-03T03:50:20;9.15;;;3.47;;
39896;SDS011;25567;48.276;14.242;2023-04-03T03:52:46;7.95;;;3.83;;
39896;SDS011;25567;48.276;14.242;2023-04-03T03:55:13;8.48;;;3.65;;
39896;SDS011;25567;48.276;14.242;2023-04-03T03:57:39;6.20;;;3.22;;
39896;SDS011;25567;48.276;14.242;2023-04-03T04:00:06;5.18;;;3.00;;
39896;SDS011;25567;48.276;14.242;2023-04-03T04:02:34;8.20;;;3.55;;
39896;SDS011;25567;48.276;14.242;2023-04-03T04:05:01;7.38;;;3.65;;
39896;SDS011;25567;48.276;14.242;2023-04-03T04:07:28;6.80;;;3.45;;
39896;SDS011;25567;48.276;14.242;2023-04-03T04:09:55;9.48;;;4.50;;
39896;SDS011;25567;48.276;14.242;2023-04-03T04:12:22;10.57;;;5.05;;
39896;SDS011;25567;48.276;14.242;2023-04-03T04:14:48;14.75;;;5.20;;
39896;SDS011;25567;48.276;14.242;2023-04-03T04:17:15;6.07;;;3.58;;
39896;SDS011;25567;48.276;14.242;2023-04-03T04:19:42;7.30;;;3.42;;
39896;SDS011;25567;48.276;14.242;2023-04-03T04:22:08;10.43;;;6.05;;
39896;SDS011;25567;48.276;14.242;2023-04-03T04:24:35;14.73;;;7.10;;
39896;SDS011;25567;48.276;14.242;2023-04-03T04:27:04;11.52;;;6.90;;
39896;SDS011;25567;48.276;14.242;2023-04-03T04:29:31;15.48;;;8.20;;
39896;SDS011;25567;48.276;14.242;2023-04-03T04:32:04;12.18;;;7.45;;
39896;SDS011;25567;48.276;14.242;2023-04-03T04:34:31;9.10;;;5.05;;
39896;SDS011;25567;48.276;14.242;2023-04-03T04:36:58;14.13;;;7.95;;
39896;SDS011;25567;48.276;14.242;2023-04-03T04:39:24;10.45;;;4.80;;
39896;SDS011;25567;48.276;14.242;2023-04-03T04:41:51;25.35;;;6.65;;
39896;SDS011;25567;48.276;14.242;2023-04-03T04:44:18;17.60;;;6.10;;
39896;SDS011;25567;48.276;14.242;2023-04-03T04:46:45;9.55;;;4.97;;
39896;SDS011;25567;48.276;14.242;2023-04-03T04:49:11;7.72;;;3.45;;
39896;SDS011;25567;48.276;14.242;2023-04-03T04:51:38;6.85;;;4.25;;
39896;SDS011;25567;48.276;14.242;2023-04-03T04:54:17;16.23;;;5.07;;
39896;SDS011;25567;48.276;14.242;2023-04-03T04:56:43;20.05;;;5.18;;
39896;SDS011;25567;48.276;14.242;2023-04-03T04:59:10;9.63;;;4.10;;
39896;SDS011;25567;48.276;14.242;2023-04-03T05:01:37;15.25;;;4.88;;
39896;SDS011;25567;48.276;14.242;2023-04-03T05:04:04;22.45;;;5.72;;
39896;SDS011;25567;48.276;14.242;2023-04-03T05:06:30;25.33;;;8.90;;
39896;SDS011;25567;48.276;14.242;2023-04-03T05:08:58;19.13;;;6.72;;
39896;SDS011;25567;48.276;14.242;2023-04-03T05:11:25;28.20;;;10.30;;
39896;SDS011;25567;48.276;14.242;2023-04-03T05:13:52;16.35;;;6.50;;
39896;SDS011;25567;48.276;14.242;2023-04-03T05:16:18;14.75;;;5.63;;
39896;SDS011;25567;48.276;14.242;2023-04-03T05:18:45;17.23;;;4.55;;
39896;SDS011;25567;48.276;14.242;2023-04-03T05:21:11;25.67;;;5.70;;
39896;SDS011;25567;48.276;14.242;2023-04-03T05:23:38;18.73;;;5.15;;
39896;SDS011;25567;48.276;14.242;2023-04-03T05:26:05;20.00;;;5.15;;
39896;SDS011;25567;48.276;14.242;2023-04-03T05:28:32;14.48;;;4.30;;
39896;SDS011;25567;48.276;14.242;2023-04-03T05:30:59;8.88;;;3.45;;
39896;SDS011;25567;48.276;14.242;2023-04-03T05:33:26;18.63;;;4.85;;
39896;SDS011;25567;48.276;14.242;2023-04-03T05:35:53;15.30;;;4.15;;
39896;SDS011;25567;48.276;14.242;2023-04-03T05:38:21;8.77;;;3.72;;
39896;SDS011;25567;48.276;14.242;2023-04-03T05:40:48;13.15;;;4.72;;
39896;SDS011;25567;48.276;14.242;2023-04-03T05:43:14;11.93;;;4.85;;
39896;SDS011;25567;48.276;14.242;2023-04-03T05:45:41;9.20;;;4.15;;
39896;SDS011;25567;48.276;14.242;2023-04-03T05:48:12;10.68;;;4.70;;
39896;SDS011;25567;48.276;14.242;2023-04-03T05:50:39;11.85;;;4.28;;
39896;SDS011;25567;48.276;14.242;2023-04-03T05:53:10;9.35;;;3.42;;
39896;SDS011;25567;48.276;14.242;2023-04-03T05:55:44;13.57;;;4.30;;
39896;SDS011;25567;48.276;14.242;2023-04-03T05:58:11;7.20;;;3.72;;
39896;SDS011;25567;48.276;14.242;2023-04-03T06:00:37;9.57;;;4.55;;
39896;SDS011;25567;48.276;14.242;2023-04-03T06:03:05;11.52;;;4.22;;
39896;SDS011;25567;48.276;14.242;2023-04-03T06:05:32;10.88;;;4.32;;
39896;SDS011;25567;48.276;14.242;2023-04-03T06:07:59;11.23;;;4.28;;
39896;SDS011;25567;48.276;14.242;2023-04-03T06:10:26;9.15;;;4.20;;
39896;SDS011;25567;48.276;14.242;2023-04-03T06:12:53;7.35;;;4.20;;
39896;SDS011;25567;48.276;14.242;2023-04-03T06:15:20;9.27;;;4.45;;
39896;SDS011;25567;48.276;14.242;2023-04-03T06:17:47;12.75;;;6.05;;
39896;SDS011;25567;48.276;14.242;2023-04-03T06:20:14;13.23;;;5.28;;
39896;SDS011;25567;48.276;14.242;2023-04-03T06:22:40;9.23;;;4.32;;
39896;SDS011;25567;48.276;14.242;2023-04-03T06:25:08;9.25;;;4.28;;
39896;SDS011;25567;48.276;14.242;2023-04-03T06:27:36;10.07;;;4.60;;
39896;SDS011;25567;48.276;14.242;2023-04-03T06:30:03;7.25;;;4.20;;
39896;SDS011;25567;48.276;14.242;2023-04-03T06:32:31;9.45;;;3.50;;
39896;SDS011;25567;48.276;14.242;2023-04-03T06:34:58;6.45;;;3.67;;
39896;SDS011;25567;48.276;14.242;2023-04-03T06:37:24;7.38;;;3.20;;
39896;SDS011;25567;48.276;14.242;2023-04-03T06:39:58;6.07;;;3.30;;
39896;SDS011;25567;48.276;14.242;2023-04-03T06:42:26;6.10;;;3.10;;
39896;SDS011;25567;48.276;14.242;2023-04-03T06:44:53;6.13;;;3.28;;
39896;SDS011;25567;48.276;14.242;2023-04-03T06:47:19;6.97;;;3.65;;
39896;SDS011;25567;48.276;14.242;2023-04-03T06:49:46;8.18;;;3.65;;
39896;SDS011;25567;48.276;14.242;2023-04-03T06:52:12;7.43;;;3.65;;
39896;SDS011;25567;48.276;14.242;2023-04-03T06:54:39;6.72;;;2.90;;
39896;SDS011;25567;48.276;14.242;2023-04-03T06:57:07;7.90;;;3.25;;
39896;SDS011;25567;48.276;14.242;2023-04-03T06:59:34;5.00;;;2.97;;
39896;SDS011;25567;48.276;14.242;2023-04-03T07:02:01;9.80;;;3.50;;
39896;SDS011;25567;48.276;14.242;2023-04-03T07:04:29;8.07;;;3.53;;
39896;SDS011;25567;48.276;14.242;2023-04-03T07:06:56;7.00;;;3.08;;
39896;SDS011;25567;48.276;14.242;2023-04-03T07:09:22;6.95;;;3.75;;
39896;SDS011;25567;48.276;14.242;2023-04-03T07:11:49;8.48;;;4.15;;
39896;SDS011;25567;48.276;14.242;2023-04-03T07:14:15;14.52;;;4.20;;
39896;SDS011;25567;48.276;14.242;2023-04-03T07:16:42;11.10;;;4.28;;
39896;SDS011;25567;48.276;14.242;2023-04-03T07:19:08;8.52;;;3.80;;
39896;SDS011;25567;48.276;14.242;2023-04-03T07:21:36;7.75;;;4.30;;
39896;SDS011;25567;48.276;14.242;2023-04-03T07:24:02;9.55;;;4.32;;
39896;SDS011;25567;48.276;14.242;2023-04-03T07:26:29;8.18;;;3.70;;
39896;SDS011;25567;48.276;14.242;2023-04-03T07:28:56;9.80;;;4.07;;
39896;SDS011;25567;48.276;14.242;2023-04-03T07:31:23;8.20;;;4.10;;
39896;SDS011;25567;48.276;14.242;2023-04-03T07:33:49;11.80;;;4.68;;
39896;SDS011;25567;48.276;14.242;2023-04-03T07:36:17;11.93;;;4.88;;
39896;SDS011;25567;48.276;14.242;2023-04-03T07:38:45;12.10;;;4.75;;
39896;SDS011;25567;48.276;14.242;2023-04-03T07:41:13;12.65;;;4.38;;
39896;SDS011;25567;48.276;14.242;2023-04-03T07:43:41;7.30;;;3.80;;
39896;SDS011;25567;48.276;14.242;2023-04-03T07:46:08;11.10;;;3.45;;
39896;SDS011;25567;48.276;14.242;2023-04-03T07:48:35;6.05;;;3.45;;
39896;SDS011;25567;48.276;14.242;2023-04-03T07:51:02;6.50;;;3.10;;
39896;SDS011;25567;48.276;14.242;2023-04-03T07:53:31;5.65;;;2.95;;
39896;SDS011;25567;48.276;14.242;2023-04-03T07:55:58;7.00;;;2.67;;
39896;SDS011;25567;48.276;14.242;2023-04-03T07:58:25;8.35;;;2.85;;
39896;SDS011;25567;48.276;14.242;2023-04-03T08:00:53;7.85;;;3.13;;
39896;SDS011;25567;48.276;14.242;2023-04-03T08:03:19;6.47;;;2.90;;
39896;SDS011;25567;48.276;14.242;2023-04-03T08:05:47;11.05;;;3.05;;
39896;SDS011;25567;48.276;14.242;2023-04-03T08:08:16;4.90;;;2.40;;
39896;SDS011;25567;48.276;14.242;2023-04-03T08:10:50;7.80;;;2.97;;
39896;SDS011;25567;48.276;14.242;2023-04-03T08:13:18;5.85;;;2.90;;
39896;SDS011;25567;48.276;14.242;2023-04-03T08:15:45;7.22;;;3.45;;
39896;SDS011;25567;48.276;14.242;2023-04-03T08:18:13;6.88;;;3.40;;
39896;SDS011;25567;48.276;14.242;2023-04-03T08:20:41;9.45;;;3.30;;
39896;SDS011;25567;48.276;14.242;2023-04-03T08:23:08;7.50;;;3.42;;
39896;SDS011;25567;48.276;14.242;2023-04-03T08:25:40;13.25;;;3.75;;
39896;SDS011;25567;48.276;14.242;2023-04-03T08:28:08;7.25;;;3.78;;
39896;SDS011;25567;48.276;14.242;2023-04-03T08:30:38;6.80;;;3.20;;
39896;SDS011;25567;48.276;14.242;2023-04-03T08:33:06;7.07;;;3.30;;
39896;SDS011;25567;48.276;14.242;2023-04-03T08:35:37;6.97;;;3.40;;
39896;SDS011;25567;48.276;14.242;2023-04-03T08:38:08;9.50;;;2.78;;
39896;SDS011;25567;48.276;14.242;2023-04-03T08:40:36;8.23;;;2.85;;
39896;SDS011;25567;48.276;14.242;2023-04-03T08:45:50;8.77;;;2.47;;
39896;SDS011;25567;48.276;14.242;2023-04-03T08:48:20;7.47;;;2.70;;
39896;SDS011;25567;48.276;14.242;2023-04-03T08:50:53;6.18;;;2.30;;
39896;SDS011;25567;48.276;14.242;2023-04-03T08:53:29;5.68;;;1.98;;
39896;SDS011;25567;48.276;14.242;2023-04-03T08:56:02;9.18;;;2.58;;
39896;SDS011;25567;48.276;14.242;2023-04-03T08:58:44;6.00;;;2.80;;
39896;SDS011;25567;48.276;14.242;2023-04-03T09:01:20;8.13;;;2.70;;
39896;SDS011;25567;48.276;14.242;2023-04-03T09:03:54;5.97;;;2.20;;
39896;SDS011;25567;48.276;14.242;2023-04-03T09:06:22;7.03;;;2.45;;
39896;SDS011;25567;48.276;14.242;2023-04-03T09:11:25;11.82;;;4.15;;
39896;SDS011;25567;48.276;14.242;2023-04-03T09:14:04;7.13;;;2.90;;
39896;SDS011;25567;48.276;14.242;2023-04-03T09:16:56;6.70;;;2.58;;
39896;SDS011;25567;48.276;14.242;2023-04-03T09:22:18;8.05;;;2.65;;
39896;SDS011;25567;48.276;14.242;2023-04-03T09:24:57;7.07;;;2.72;;
39896;SDS011;25567;48.276;14.242;2023-04-03T09:27:29;4.57;;;2.15;;
39896;SDS011;25567;48.276;14.242;2023-04-03T09:29:56;4.53;;;2.28;;
39896;SDS011;25567;48.276;14.242;2023-04-03T09:34:57;5.30;;;2.10;;
39896;SDS011;25567;48.276;14.242;2023-04-03T09:37:42;10.93;;;2.45;;
39896;SDS011;25567;48.276;14.242;2023-04-03T09:40:32;6.82;;;2.00;;
39896;SDS011;25567;48.276;14.242;2023-04-03T09:43:08;5.88;;;2.50;;
39896;SDS011;25567;48.276;14.242;2023-04-03T09:45:47;5.45;;;2.33;;
39896;SDS011;25567;48.276;14.242;2023-04-03T09:48:16;6.30;;;2.33;;
39896;SDS011;25567;48.276;14.242;2023-04-03T09:55:57;6.22;;;2.05;;
39896;SDS011;25567;48.276;14.242;2023-04-03T09:58:26;2.78;;;1.67;;
39896;SDS011;25567;48.276;14.242;2023-04-03T10:06:43;4.78;;;1.80;;
39896;SDS011;25567;48.276;14.242;2023-04-03T10:12:20;7.40;;;2.25;;
39896;SDS011;25567;48.276;14.242;2023-04-03T10:14:54;6.60;;;2.00;;
39896;SDS011;25567;48.276;14.242;2023-04-03T10:20:30;7.70;;;1.80;;
39896;SDS011;25567;48.276;14.242;2023-04-03T10:26:15;5.70;;;1.60;;
39896;SDS011;25567;48.276;14.242;2023-04-03T10:31:23;2.95;;;1.52;;
39896;SDS011;25567;48.276;14.242;2023-04-03T10:36:36;6.00;;;1.90;;
39896;SDS011;25567;48.276;14.242;2023-04-03T10:39:31;6.38;;;2.10;;
39896;SDS011;25567;48.276;14.242;2023-04-03T10:42:50;3.45;;;1.70;;
39896;SDS011;25567;48.276;14.242;2023-04-03T10:45:27;7.82;;;2.58;;
39896;SDS011;25567;48.276;14.242;2023-04-03T10:53:59;6.20;;;2.50;;
39896;SDS011;25567;48.276;14.242;2023-04-03T10:56:37;7.85;;;2.83;;
39896;SDS011;25567;48.276;14.242;2023-04-03T10:59:21;3.95;;;2.10;;
39896;SDS011;25567;48.276;14.242;2023-04-03T11:01:55;3.42;;;1.83;;
39896;SDS011;25567;48.276;14.242;2023-04-03T11:04:26;6.40;;;2.45;;
39896;SDS011;25567;48.276;14.242;2023-04-03T11:07:42;4.90;;;2.10;;
39896;SDS011;25567;48.276;14.242;2023-04-03T11:13:11;5.97;;;2.45;;
39896;SDS011;25567;48.276;14.242;2023-04-03T11:15:49;4.38;;;2.30;;
39896;SDS011;25567;48.276;14.242;2023-04-03T11:18:21;5.43;;;2.20;;
39896;SDS011;25567;48.276;14.242;2023-04-03T11:21:13;9.25;;;2.90;;
39896;SDS011;25567;48.276;14.242;2023-04-03T11:23:56;4.55;;;2.40;;
39896;SDS011;25567;48.276;14.242;2023-04-03T11:26:26;5.60;;;2.17;;
39896;SDS011;25567;48.276;14.242;2023-04-03T11:29:00;7.20;;;2.42;;
39896;SDS011;25567;48.276;14.242;2023-04-03T11:36:43;5.32;;;2.20;;
39896;SDS011;25567;48.276;14.242;2023-04-03T11:39:24;11.95;;;2.88;;
39896;SDS011;25567;48.276;14.242;2023-04-03T11:41:55;10.82;;;2.83;;
39896;SDS011;25567;48.276;14.242;2023-04-03T11:44:36;4.78;;;2.33;;
39896;SDS011;25567;48.276;14.242;2023-04-03T11:47:05;11.52;;;2.60;;
39896;SDS011;25567;48.276;14.242;2023-04-03T12:19:27;6.40;;;2.50;;
39896;SDS011;25567;48.276;14.242;2023-04-03T12:22:07;6.10;;;2.38;;
39896;SDS011;25567;48.276;14.242;2023-04-03T12:24:37;4.55;;;2.33;;
39896;SDS011;25567;48.276;14.242;2023-04-03T12:27:15;6.32;;;2.20;;
39896;SDS011;25567;48.276;14.242;2023-04-03T12:30:04;5.80;;;2.20;;
39896;SDS011;25567;48.276;14.242;2023-04-03T12:41:16;6.55;;;2.38;;
39896;SDS011;25567;48.276;14.242;2023-04-03T12:48:38;5.50;;;3.03;;
39896;SDS011;25567;48.276;14.242;2023-04-03T12:54:46;7.10;;;3.33;;
39896;SDS011;25567;48.276;14.242;2023-04-03T12:57:12;6.25;;;2.50;;
39896;SDS011;25567;48.276;14.242;2023-04-03T12:59:42;7.13;;;3.00;;
39896;SDS011;25567;48.276;14.242;2023-04-03T13:02:23;4.78;;;2.47;;
39896;SDS011;25567;48.276;14.242;2023-04-03T13:04:53;6.32;;;2.92;;
39896;SDS011;25567;48.276;14.242;2023-04-03T13:07:25;3.95;;;2.58;;
39896;SDS011;25567;48.276;14.242;2023-04-03T13:10:01;5.90;;;2.38;;
39896;SDS011;25567;48.276;14.242;2023-04-03T13:12:31;4.60;;;2.40;;
39896;SDS011;25567;48.276;14.242;2023-04-03T13:15:00;7.07;;;2.40;;
39896;SDS011;25567;48.276;14.242;2023-04-03T13:17:30;4.50;;;2.50;;
39896;SDS011;25567;48.276;14.242;2023-04-03T13:20:09;5.75;;;2.65;;
39896;SDS011;25567;48.276;14.242;2023-04-03T13:23:11;5.68;;;2.53;;
39896;SDS011;25567;48.276;14.242;2023-04-03T13:25:35;6.97;;;2.47;;
39896;SDS011;25567;48.276;14.242;2023-04-03T13:28:09;5.65;;;2.78;;
39896;SDS011;25567;48.276;14.242;2023-04-03T13:30:40;8.77;;;5.53;;
39896;SDS011;25567;48.276;14.242;2023-04-03T13:33:25;6.25;;;2.88;;
39896;SDS011;25567;48.276;14.242;2023-04-03T13:35:58;7.28;;;2.55;;
39896;SDS011;25567;48.276;14.242;2023-04-03T13:38:29;5.90;;;2.33;;
39896;SDS011;25567;48.276;14.242;2023-04-03T13:47:36;6.10;;;2.17;;
39896;SDS011;25567;48.276;14.242;2023-04-03T13:49:39;4.57;;;2.35;;
39896;SDS011;25567;48.276;14.242;2023-04-03T13:54:46;8.80;;;2.85;;
39896;SDS011;25567;48.276;14.242;2023-04-03T13:57:17;5.38;;;2.53;;
39896;SDS011;25567;48.276;14.242;2023-04-03T13:59:44;5.72;;;2.90;;
39896;SDS011;25567;48.276;14.242;2023-04-03T14:07:11;4.47;;;2.50;;
39896;SDS011;25567;48.276;14.242;2023-04-03T14:09:38;4.65;;;2.80;;
39896;SDS011;25567;48.276;14.242;2023-04-03T14:12:06;5.80;;;2.90;;
39896;SDS011;25567;48.276;14.242;2023-04-03T14:14:49;6.10;;;2.50;;
39896;SDS011;25567;48.276;14.242;2023-04-03T14:17:17;4.43;;;2.30;;
39896;SDS011;25567;48.276;14.242;2023-04-03T14:19:51;5.32;;;2.70;;
39896;SDS011;25567;48.276;14.242;2023-04-03T14:22:21;4.90;;;2.40;;
39896;SDS011;25567;48.276;14.242;2023-04-03T14:24:52;4.05;;;2.20;;
39896;SDS011;25567;48.276;14.242;2023-04-03T14:27:20;4.35;;;2.72;;
39896;SDS011;25567;48.276;14.242;2023-04-03T14:29:50;7.38;;;2.40;;
39896;SDS011;25567;48.276;14.242;2023-04-03T14:32:19;9.57;;;2.78;;
39896;SDS011;25567;48.276;14.242;2023-04-03T14:34:47;7.95;;;2.67;;
39896;SDS011;25567;48.276;14.242;2023-04-03T14:37:17;5.43;;;2.70;;
39896;SDS011;25567;48.276;14.242;2023-04-03T14:39:46;5.82;;;2.60;;
39896;SDS011;25567;48.276;14.242;2023-04-03T14:42:14;11.85;;;3.20;;
39896;SDS011;25567;48.276;14.242;2023-04-03T14:45:03;7.57;;;2.33;;
39896;SDS011;25567;48.276;14.242;2023-04-03T14:47:31;9.60;;;2.70;;
39896;SDS011;25567;48.276;14.242;2023-04-03T14:49:59;5.72;;;2.35;;
39896;SDS011;25567;48.276;14.242;2023-04-03T14:52:32;5.07;;;2.42;;
39896;SDS011;25567;48.276;14.242;2023-04-03T14:55:02;4.47;;;2.38;;
39896;SDS011;25567;48.276;14.242;2023-04-03T14:57:30;5.00;;;2.50;;
39896;SDS011;25567;48.276;14.242;2023-04-03T14:59:57;4.72;;;2.70;;
39896;SDS011;25567;48.276;14.242;2023-04-03T15:04:52;11.02;;;2.83;;
39896;SDS011;25567;48.276;14.242;2023-04-03T15:07:19;4.10;;;2.40;;
39896;SDS011;25567;48.276;14.242;2023-04-03T15:09:47;6.30;;;2.53;;
39896;SDS011;25567;48.276;14.242;2023-04-03T15:12:13;7.07;;;2.97;;
39896;SDS011;25567;48.276;14.242;2023-04-03T15:14:41;4.72;;;2.70;;
39896;SDS011;25567;48.276;14.242;2023-04-03T15:17:19;9.43;;;3.00;;
39896;SDS011;25567;48.276;14.242;2023-04-03T15:19:48;6.72;;;3.25;;
39896;SDS011;25567;48.276;14.242;2023-04-03T15:22:16;8.63;;;2.72;;
39896;SDS011;25567;48.276;14.242;2023-04-03T15:24:45;5.82;;;2.65;;
39896;SDS011;25567;48.276;14.242;2023-04-03T15:27:13;5.80;;;2.00;;
39896;SDS011;25567;48.276;14.242;2023-04-03T15:29:41;6.90;;;2.47;;
39896;SDS011;25567;48.276;14.242;2023-04-03T15:32:09;6.63;;;2.33;;
39896;SDS011;25567;48.276;14.242;2023-04-03T15:34:37;7.18;;;2.42;;
39896;SDS011;25567;48.276;14.242;2023-04-03T15:37:03;6.30;;;2.60;;
39896;SDS011;25567;48.276;14.242;2023-04-03T15:39:30;4.47;;;2.78;;
39896;SDS011;25567;48.276;14.242;2023-04-03T15:41:57;11.13;;;2.85;;
39896;SDS011;25567;48.276;14.242;2023-04-03T15:44:32;7.50;;;2.85;;
39896;SDS011;25567;48.276;14.242;2023-04-03T15:47:00;5.25;;;2.33;;
39896;SDS011;25567;48.276;14.242;2023-04-03T15:49:28;14.45;;;2.58;;
39896;SDS011;25567;48.276;14.242;2023-04-03T15:51:55;5.90;;;2.60;;
39896;SDS011;25567;48.276;14.242;2023-04-03T15:54:21;7.30;;;2.70;;
39896;SDS011;25567;48.276;14.242;2023-04-03T15:56:50;5.32;;;2.92;;
39896;SDS011;25567;48.276;14.242;2023-04-03T15:59:17;11.10;;;3.67;;
39896;SDS011;25567;48.276;14.242;2023-04-03T16:01:44;7.10;;;2.30;;
39896;SDS011;25567;48.276;14.242;2023-04-03T16:04:11;8.35;;;3.10;;
39896;SDS011;25567;48.276;14.242;2023-04-03T16:06:40;10.13;;;2.78;;
39896;SDS011;25567;48.276;14.242;2023-04-03T16:09:07;3.95;;;2.55;;
39896;SDS011;25567;48.276;14.242;2023-04-03T16:11:34;4.50;;;2.50;;
39896;SDS011;25567;48.276;14.242;2023-04-03T16:14:02;5.65;;;2.42;;
39896;SDS011;25567;48.276;14.242;2023-04-03T16:16:28;6.95;;;2.95;;
39896;SDS011;25567;48.276;14.242;2023-04-03T16:18:56;6.20;;;2.83;;
39896;SDS011;25567;48.276;14.242;2023-04-03T16:21:23;7.72;;;3.55;;
39896;SDS011;25567;48.276;14.242;2023-04-03T16:23:50;7.88;;;3.13;;
39896;SDS011;25567;48.276;14.242;2023-04-03T16:26:17;7.38;;;3.45;;
39896;SDS011;25567;48.276;14.242;2023-04-03T16:28:44;9.35;;;3.80;;
39896;SDS011;25567;48.276;14.242;2023-04-03T16:31:10;6.03;;;2.70;;
39896;SDS011;25567;48.276;14.242;2023-04-03T16:33:37;12.18;;;3.30;;
39896;SDS011;25567;48.276;14.242;2023-04-03T16:36:04;10.57;;;3.53;;
39896;SDS011;25567;48.276;14.242;2023-04-03T16:38:31;11.85;;;4.45;;
39896;SDS011;25567;48.276;14.242;2023-04-03T16:40:59;7.18;;;3.45;;
39896;SDS011;25567;48.276;14.242;2023-04-03T16:43:31;10.18;;;3.50;;
39896;SDS011;25567;48.276;14.242;2023-04-03T16:45:58;8.30;;;4.18;;
39896;SDS011;25567;48.276;14.242;2023-04-03T16:48:24;12.63;;;3.58;;